This is the latest recevied weather packets stored in our database for station/object K4HOG. If no packets are shown the sender has not sent any weather packets the latest 10 day(s).
| Time | Temp. | Humidity | Pressure | Rain* | Wind** | Luminosity | Snow |
|---|---|---|---|---|---|---|---|
| 1777908148 | 25.56° C | 46% | 1017.6 hPa | 0 mm | - | 742 W/m² | - |
| 1777907844 | 25° C | 47% | 1017.5 hPa | 0 mm | - | 735 W/m² | - |
| 1777907540 | 25° C | 46% | 1017.6 hPa | 0 mm | - | 620 W/m² | - |
| 1777907236 | 25° C | 48% | 1017.4 hPa | 0 mm | - | 107 W/m² | - |
| 1777906933 | 24.44° C | 50% | 1017.7 hPa | 0 mm | - | 158 W/m² | - |
| 1777906631 | 25° C | 48% | 1017.6 hPa | 0 mm | - | 173 W/m² | - |
| 1777906326 | 24.44° C | 52% | 1017.8 hPa | 0 mm | - | 302 W/m² | - |
| 1777906023 | 24.44° C | 51% | 1017.6 hPa | 0 mm | - | 531 W/m² | - |
| 1777905719 | 23.89° C | 51% | 1017.6 hPa | 0 mm | - | 160 W/m² | - |
| 1777905416 | 23.89° C | 49% | 1017.6 hPa | 0 mm | - | 125 W/m² | - |
| 1777905114 | 23.89° C | 49% | 1017.8 hPa | 0 mm | - | 122 W/m² | - |
| 1777904811 | 23.89° C | 53% | 1017.7 hPa | 0 mm | - | 177 W/m² | - |
| 1777904508 | 23.33° C | 54% | 1017.7 hPa | 0 mm | - | 101 W/m² | - |
| 1777904204 | 23.33° C | 58% | 1017.8 hPa | 0 mm | - | 98 W/m² | - |
| 1777903902 | 23.33° C | 59% | 1017.8 hPa | 0 mm | - | 99 W/m² | - |
| 1777903599 | 22.78° C | 62% | 1017.8 hPa | 0 mm | - | 124 W/m² | - |
| 1777903294 | 23.33° C | 61% | 1017.6 hPa | 0 mm | - | 99 W/m² | - |
| 1777902991 | 22.78° C | 65% | 1017.6 hPa | 0 mm | - | 156 W/m² | - |
| 1777902688 | 22.78° C | 67% | 1017.8 hPa | 0 mm | - | 100 W/m² | - |
| 1777902385 | 22.22° C | 69% | 1017.6 hPa | 0 mm | - | 304 W/m² | - |
| 1777902081 | 22.22° C | 69% | 1017.7 hPa | 0 mm | - | 177 W/m² | - |
| 1777901780 | 21.67° C | 71% | 1017.5 hPa | 0 mm | - | 57 W/m² | - |
| 1777901477 | 21.67° C | 72% | 1017.4 hPa | 0 mm | - | 148 W/m² | - |
| 1777901175 | 21.67° C | 72% | 1017.5 hPa | 0 mm | - | 58 W/m² | - |
| 1777900872 | 21.11° C | 73% | 1017.3 hPa | 0 mm | - | 55 W/m² | - |
* Rain latest hour (hover to see other rain measurements)
** Current wind speed in m/s (hover to see current wind gust speed)